Time,TemperatureF,DewpointF,PressureIn,WindDirection,WindDirectionDegrees,WindSpeedMPH,WindSpeedGustMPH,Humidity,HourlyPrecipIn,Conditions,Clouds,dailyrainin,SoftwareType,DateUTC
2013-01-24 00:00:00,13.9,13.9,30.08,SW,234,0.0,0.0,100,0.00,,,0.00,WUHU216PEETBRO,2013-01-24 05:00:00,
2013-01-24 00:02:00,13.9,13.9,30.08,SW,234,0.0,0.0,100,0.00,,,0.00,WUHU216PEETBRO,2013-01-24 05:02:00,
2013-01-24 00:22:00,13.1,13.1,30.09,SW,234,0.0,0.0,100,0.00,,,0.00,WUHU216PEETBRO,2013-01-24 05:22:00,
2013-01-24 00:27:00,13.1,13.1,30.09,SW,234,0.0,0.0,100,0.00,,,0.00,WUHU216PEETBRO,2013-01-24 05:27:00,
2013-01-24 00:52:00,12.4,12.4,30.11,SW,234,0.0,0.0,100,0.00,,,0.00,WUHU216PEETBRO,2013-01-24 05:52:00,
2013-01-24 00:57:00,12.4,12.4,30.11,SW,234,0.0,0.0,100,0.00,,,0.00,WUHU216PEETBRO,2013-01-24 05:57:00,
2013-01-24 01:22:00,12.6,12.6,30.12,SW,234,0.0,0.0,100,0.00,,,0.00,WUHU216PEETBRO,2013-01-24 06:22:00,
2013-01-24 01:27:00,12.6,12.6,30.12,SW,234,0.0,0.0,100,0.00,,,0.00,WUHU216PEETBRO,2013-01-24 06:27:00,
2013-01-24 01:52:00,12.3,11.8,30.14,North,9,0.0,0.0,98,0.00,,,0.00,WUHU216PEETBRO,2013-01-24 06:52:00,
2013-01-24 01:57:00,12.3,11.8,30.14,North,9,0.0,0.0,98,0.00,,,0.00,WUHU216PEETBRO,2013-01-24 06:57:00,
2013-01-24 02:22:00,11.4,11.1,30.17,North,9,0.0,0.0,99,0.00,,,0.01,WUHU216PEETBRO,2013-01-24 07:22:00,
2013-01-24 02:27:00,11.4,11.1,30.17,North,9,0.0,0.0,99,0.00,,,0.01,WUHU216PEETBRO,2013-01-24 07:27:00,
2013-01-24 02:32:00,11.4,11.1,30.17,North,9,0.0,0.0,99,0.00,,,0.01,WUHU216PEETBRO,2013-01-24 07:32:00,
2013-01-24 02:52:00,10.9,10.8,30.18,NNW,331,0.0,0.0,100,0.00,,,0.01,WUHU216PEETBRO,2013-01-24 07:52:00,
2013-01-24 02:57:00,10.9,10.8,30.18,NNW,331,0.0,0.0,100,0.00,,,0.01,WUHU216PEETBRO,2013-01-24 07:57:00,
2013-01-24 03:22:00,10.8,10.5,30.20,North,359,6.3,6.3,99,0.00,,,0.01,WUHU216PEETBRO,2013-01-24 08:22:00,
2013-01-24 03:27:00,10.8,10.5,30.20,North,359,6.3,6.3,99,0.00,,,0.01,WUHU216PEETBRO,2013-01-24 08:27:00,
2013-01-24 03:52:00,10.5,10.0,30.22,NNW,348,3.5,3.5,98,0.00,,,0.01,WUHU216PEETBRO,2013-01-24 08:52:00,
2013-01-24 03:57:00,10.5,10.0,30.22,NNW,348,3.5,3.5,98,0.00,,,0.01,WUHU216PEETBRO,2013-01-24 08:57:00,
2013-01-24 04:22:00,10.8,10.4,30.23,North,0,3.3,4.7,99,0.00,,,0.01,WUHU216PEETBRO,2013-01-24 09:22:00,
2013-01-24 04:27:00,10.8,10.4,30.23,North,0,3.3,4.7,99,0.00,,,0.01,WUHU216PEETBRO,2013-01-24 09:27:00,
2013-01-24 04:52:00,11.8,11.6,30.25,NNE,32,0.0,0.0,99,0.00,,,0.01,WUHU216PEETBRO,2013-01-24 09:52:00,
2013-01-24 04:57:00,11.8,11.6,30.25,NNE,32,0.0,0.0,99,0.00,,,0.01,WUHU216PEETBRO,2013-01-24 09:57:00,
2013-01-24 05:22:00,11.8,11.8,30.29,NNE,31,0.0,0.0,100,0.00,,,0.01,WUHU216PEETBRO,2013-01-24 10:22:00,
2013-01-24 05:27:00,11.8,11.8,30.29,NNE,31,0.0,0.0,100,0.00,,,0.01,WUHU216PEETBRO,2013-01-24 10:27:00,
2013-01-24 05:53:00,11.4,11.1,30.32,North,4,0.0,0.0,99,0.00,,,0.01,WUHU216PEETBRO,2013-01-24 10:53:00,
2013-01-24 05:58:00,11.4,11.1,30.32,North,4,0.0,0.0,99,0.00,,,0.01,WUHU216PEETBRO,2013-01-24 10:58:00,
2013-01-24 06:23:00,10.9,10.5,30.34,NNE,32,0.0,0.0,99,0.00,,,0.01,WUHU216PEETBRO,2013-01-24 11:23:00,
2013-01-24 06:28:00,10.9,10.5,30.34,NNE,32,0.0,0.0,99,0.00,,,0.01,WUHU216PEETBRO,2013-01-24 11:28:00,
2013-01-24 06:53:00,10.1,9.7,30.36,NE,55,0.0,0.0,98,0.00,,,0.01,WUHU216PEETBRO,2013-01-24 11:53:00,
2013-01-24 06:58:00,10.1,9.7,30.36,NE,55,0.0,0.0,98,0.00,,,0.01,WUHU216PEETBRO,2013-01-24 11:58:00,
2013-01-24 07:23:00,9.7,9.3,30.38,NW,321,0.0,0.0,98,0.00,,,0.01,WUHU216PEETBRO,2013-01-24 12:23:00,
2013-01-24 07:28:00,9.7,9.3,30.38,NW,321,0.0,0.0,98,0.00,,,0.01,WUHU216PEETBRO,2013-01-24 12:28:00,
2013-01-24 07:53:00,9.1,8.7,30.41,NNW,328,6.5,6.5,98,0.00,,,0.01,WUHU216PEETBRO,2013-01-24 12:53:00,
2013-01-24 07:58:00,9.1,8.7,30.41,NNW,328,6.5,6.5,98,0.00,,,0.01,WUHU216PEETBRO,2013-01-24 12:58:00,
2013-01-24 08:04:00,9.4,8.8,30.42,North,359,0.0,0.0,98,0.00,,,0.01,WUHU216PEETBRO,2013-01-24 13:04:00,
2013-01-24 08:09:00,9.4,8.8,30.42,North,359,0.0,0.0,98,0.00,,,0.01,WUHU216PEETBRO,2013-01-24 13:09:00,
2013-01-24 08:23:00,9.7,9.1,30.43,North,4,3.5,3.5,98,0.00,,,0.01,WUHU216PEETBRO,2013-01-24 13:23:00,
2013-01-24 08:28:00,9.7,9.1,30.43,North,4,3.5,3.5,98,0.00,,,0.01,WUHU216PEETBRO,2013-01-24 13:28:00,
2013-01-24 08:53:00,10.6,9.5,30.45,North,5,6.2,6.8,96,0.00,,,0.01,WUHU216PEETBRO,2013-01-24 13:53:00,
2013-01-24 08:58:00,10.6,9.5,30.45,North,5,6.2,6.8,96,0.00,,,0.01,WUHU216PEETBRO,2013-01-24 13:58:00,
2013-01-24 09:23:00,12.0,10.5,30.46,NNE,25,0.0,0.0,94,0.00,,,0.01,WUHU216PEETBRO,2013-01-24 14:23:00,
2013-01-24 09:28:00,12.0,10.5,30.46,NNE,25,0.0,0.0,94,0.00,,,0.01,WUHU216PEETBRO,2013-01-24 14:28:00,
2013-01-24 09:53:00,12.8,10.4,30.48,North,1,6.8,6.8,90,0.00,,,0.01,WUHU216PEETBRO,2013-01-24 14:53:00,
2013-01-24 09:58:00,12.8,10.4,30.48,North,1,6.8,6.8,90,0.00,,,0.01,WUHU216PEETBRO,2013-01-24 14:58:00,
2013-01-24 10:23:00,13.8,10.4,30.50,North,11,3.2,3.2,86,0.00,,,0.01,WUHU216PEETBRO,2013-01-24 15:23:00,
2013-01-24 10:28:00,13.8,10.4,30.50,North,11,3.2,3.2,86,0.00,,,0.01,WUHU216PEETBRO,2013-01-24 15:28:00,
2013-01-24 10:53:00,15.2,11.2,30.52,NNE,25,0.0,0.0,84,0.00,,,0.01,WUHU216PEETBRO,2013-01-24 15:53:00,
2013-01-24 10:58:00,15.2,11.2,30.52,NNE,25,0.0,0.0,84,0.00,,,0.01,WUHU216PEETBRO,2013-01-24 15:58:00,
2013-01-24 11:23:00,15.0,9.1,30.53,NE,43,5.0,5.0,77,0.00,,,0.01,WUHU216PEETBRO,2013-01-24 16:23:00,
2013-01-24 11:28:00,15.0,9.1,30.53,NE,43,5.0,5.0,77,0.00,,,0.01,WUHU216PEETBRO,2013-01-24 16:28:00,
2013-01-24 11:53:00,16.2,10.2,30.53,NNE,26,0.0,0.0,77,0.00,,,0.01,WUHU216PEETBRO,2013-01-24 16:53:00,
2013-01-24 11:58:00,16.2,10.2,30.53,NNE,26,0.0,0.0,77,0.00,,,0.01,WUHU216PEETBRO,2013-01-24 16:58:00,
2013-01-24 12:23:00,16.2,9.8,30.52,NNE,23,3.5,3.5,75,0.00,,,0.01,WUHU216PEETBRO,2013-01-24 17:23:00,
2013-01-24 12:28:00,16.2,9.8,30.52,NNE,23,3.5,3.5,75,0.00,,,0.01,WUHU216PEETBRO,2013-01-24 17:28:00,
2013-01-24 12:53:00,16.2,10.5,30.52,NNE,12,0.0,0.0,78,0.00,,,0.01,WUHU216PEETBRO,2013-01-24 17:53:00,
2013-01-24 12:58:00,16.2,10.5,30.52,NNE,12,0.0,0.0,78,0.00,,,0.01,WUHU216PEETBRO,2013-01-24 17:58:00,
2013-01-24 13:23:00,17.7,9.5,30.52,NE,49,0.0,0.0,70,0.00,,,0.01,WUHU216PEETBRO,2013-01-24 18:23:00,
2013-01-24 13:28:00,17.7,9.5,30.52,NE,49,0.0,0.0,70,0.00,,,0.01,WUHU216PEETBRO,2013-01-24 18:28:00,
2013-01-24 13:53:00,17.9,9.3,30.52,NW,316,0.0,0.0,68,0.00,,,0.01,WUHU216PEETBRO,2013-01-24 18:53:00,
2013-01-24 13:58:00,17.9,9.3,30.52,NW,316,0.0,0.0,68,0.00,,,0.01,WUHU216PEETBRO,2013-01-24 18:58:00,
2013-01-24 14:23:00,17.9,9.2,30.52,North,357,0.0,0.0,68,0.00,,,0.01,WUHU216PEETBRO,2013-01-24 19:23:00,
2013-01-24 14:28:00,17.9,9.2,30.52,North,357,0.0,0.0,68,0.00,,,0.01,WUHU216PEETBRO,2013-01-24 19:28:00,
2013-01-24 14:53:00,18.1,8.4,30.52,NNE,12,3.2,3.2,65,0.00,,,0.01,WUHU216PEETBRO,2013-01-24 19:53:00,
2013-01-24 14:58:00,18.1,8.4,30.52,NNE,12,3.2,3.2,65,0.00,,,0.01,WUHU216PEETBRO,2013-01-24 19:58:00,
2013-01-24 15:23:00,18.1,7.2,30.53,SW,232,0.0,0.0,62,0.00,,,0.01,WUHU216PEETBRO,2013-01-24 20:23:00,
2013-01-24 15:28:00,18.1,7.2,30.53,SW,232,0.0,0.0,62,0.00,,,0.01,WUHU216PEETBRO,2013-01-24 20:28:00,
2013-01-24 15:53:00,17.7,8.2,30.53,NE,55,0.0,0.0,66,0.00,,,0.01,WUHU216PEETBRO,2013-01-24 20:53:00,
2013-01-24 15:58:00,17.7,8.2,30.53,NE,55,0.0,0.0,66,0.00,,,0.01,WUHU216PEETBRO,2013-01-24 20:58:00,
2013-01-24 16:23:00,17.5,7.5,30.53,North,359,0.0,0.0,64,0.00,,,0.01,WUHU216PEETBRO,2013-01-24 21:23:00,
2013-01-24 16:28:00,17.5,7.5,30.53,North,359,0.0,0.0,64,0.00,,,0.01,WUHU216PEETBRO,2013-01-24 21:28:00,
2013-01-24 16:53:00,16.1,8.3,30.53,North,359,0.0,0.0,71,0.00,,,0.01,WUHU216PEETBRO,2013-01-24 21:53:00,
2013-01-24 16:58:00,16.1,8.3,30.53,North,359,0.0,0.0,71,0.00,,,0.01,WUHU216PEETBRO,2013-01-24 21:58:00,
2013-01-24 17:23:00,14.6,7.8,30.54,North,359,0.0,0.0,74,0.00,,,0.01,WUHU216PEETBRO,2013-01-24 22:23:00,
2013-01-24 17:28:00,14.6,7.8,30.54,North,359,0.0,0.0,74,0.00,,,0.01,WUHU216PEETBRO,2013-01-24 22:28:00,
2013-01-24 17:53:00,12.9,7.0,30.53,North,359,0.0,0.0,77,0.00,,,0.01,WUHU216PEETBRO,2013-01-24 22:53:00,
2013-01-24 17:58:00,12.9,7.0,30.53,North,359,0.0,0.0,77,0.00,,,0.01,WUHU216PEETBRO,2013-01-24 22:58:00,
2013-01-24 18:23:00,10.8,6.2,30.53,North,359,0.0,0.0,81,0.00,,,0.01,WUHU216PEETBRO,2013-01-24 23:23:00,
2013-01-24 18:28:00,10.8,6.2,30.53,North,359,0.0,0.0,81,0.00,,,0.01,WUHU216PEETBRO,2013-01-24 23:28:00,
2013-01-24 18:53:00,9.5,5.6,30.54,North,359,0.0,0.0,84,0.00,,,0.01,WUHU216PEETBRO,2013-01-24 23:53:00,
2013-01-24 18:58:00,9.5,5.6,30.54,North,359,0.0,0.0,84,0.00,,,0.01,WUHU216PEETBRO,2013-01-24 23:58:00,
2013-01-24 19:23:00,9.0,5.6,30.53,North,359,0.0,0.0,86,0.00,,,0.01,WUHU216PEETBRO,2013-01-25 00:23:00,
2013-01-24 19:28:00,9.0,5.6,30.53,North,359,0.0,0.0,86,0.00,,,0.01,WUHU216PEETBRO,2013-01-25 00:28:00,
2013-01-24 19:53:00,8.9,5.5,30.53,North,359,0.0,0.0,86,0.00,,,0.01,WUHU216PEETBRO,2013-01-25 00:53:00,
2013-01-24 19:58:00,8.9,5.5,30.53,North,359,0.0,0.0,86,0.00,,,0.01,WUHU216PEETBRO,2013-01-25 00:58:00,
2013-01-24 20:23:00,8.6,5.2,30.51,North,359,0.0,0.0,86,0.00,,,0.01,WUHU216PEETBRO,2013-01-25 01:23:00,
2013-01-24 20:28:00,8.6,5.2,30.51,North,359,0.0,0.0,86,0.00,,,0.01,WUHU216PEETBRO,2013-01-25 01:28:00,
2013-01-24 20:54:00,9.4,5.7,30.50,North,359,0.0,0.0,85,0.00,,,0.01,WUHU216PEETBRO,2013-01-25 01:54:00,
2013-01-24 20:59:00,9.4,5.7,30.50,North,359,0.0,0.0,85,0.00,,,0.01,WUHU216PEETBRO,2013-01-25 01:59:00,
2013-01-24 21:21:00,9.3,5.8,30.50,North,359,0.0,0.0,86,0.00,,,0.01,WUHU216PEETBRO,2013-01-25 02:21:00,
2013-01-24 21:26:00,9.3,5.8,30.50,North,359,0.0,0.0,85,0.00,,,0.01,WUHU216PEETBRO,2013-01-25 02:26:00,
2013-01-24 21:31:00,9.3,5.8,30.50,North,359,0.0,0.0,85,0.00,,,0.01,WUHU216PEETBRO,2013-01-25 02:31:00,
2013-01-24 21:54:00,9.1,6.5,30.50,North,359,0.0,0.0,89,0.00,,,0.01,WUHU216PEETBRO,2013-01-25 02:54:00,
2013-01-24 21:59:00,9.1,6.5,30.50,North,359,0.0,0.0,89,0.00,,,0.01,WUHU216PEETBRO,2013-01-25 02:59:00,
2013-01-24 22:54:00,9.5,6.3,30.50,North,359,0.0,0.0,87,0.00,,,0.01,WUHU216PEETBRO,2013-01-25 03:54:00,
2013-01-24 22:59:00,9.5,6.3,30.50,North,359,0.0,0.0,87,0.00,,,0.01,WUHU216PEETBRO,2013-01-25 03:59:00,
2013-01-24 23:24:00,9.8,5.8,30.50,North,359,0.0,0.0,84,0.00,,,0.01,WUHU216PEETBRO,2013-01-25 04:24:00,
2013-01-24 23:29:00,9.8,5.8,30.50,North,359,0.0,0.0,84,0.00,,,0.01,WUHU216PEETBRO,2013-01-25 04:29:00,
2013-01-24 23:54:00,9.8,6.2,30.49,North,359,0.0,0.0,85,0.00,,,0.01,WUHU216PEETBRO,2013-01-25 04:54:00,
2013-01-24 23:59:00,9.8,6.2,30.49,North,359,0.0,0.0,85,0.00,,,0.01,WUHU216PEETBRO,2013-01-25 04:59:00,